Time;durP1;ratioP1;P1;durP2;ratioP2;P2;SDS_P1;SDS_P2;PMS_P1;PMS_P2;Temp;Humidity;BMP_temperature;BMP_pressure;BME280_temperature;BME280_humidity;BME280_pressure;Samples;Min_cycle;Max_cycle;Signal;HPM_P1;HPM_P2
2022/09/22 00:01:44;;;;;;;5.57;4.32;;;;;;;;;;5051963;28;20564;-70
2022/09/22 00:04:11;;;;;;;7.40;4.68;;;;;;;;;;5061910;28;20128;-70
2022/09/22 00:06:47;;;;;;;5.90;5.00;;;;;;;;;;5059938;28;20071;-70
2022/09/22 00:09:15;;;;;;;7.72;5.07;;;;;;;;;;5057300;28;20048;-70
2022/09/22 00:11:43;;;;;;;8.45;4.60;;;;;;;;;;5059333;28;20485;-70
2022/09/22 00:14:11;;;;;;;7.78;4.30;;;;;;;;;;5061818;28;20106;-70
2022/09/22 00:16:42;;;;;;;6.95;4.30;;;;;;;;;;5055842;28;20067;-70
2022/09/22 00:19:11;;;;;;;6.97;4.95;;;;;;;;;;5060514;28;20048;-70
2022/09/22 00:21:36;;;;;;;5.93;4.50;;;;;;;;;;5057714;28;20048;-70
2022/09/22 00:24:03;;;;;;;8.32;4.82;;;;;;;;;;5060572;28;20078;-70
2022/09/22 00:26:33;;;;;;;11.18;4.85;;;;;;;;;;5060728;28;20539;-70
2022/09/22 00:29:00;;;;;;;7.88;4.70;;;;;;;;;;5061931;28;20048;-70
2022/09/22 00:31:26;;;;;;;6.95;4.80;;;;;;;;;;5049262;28;20040;-70
2022/09/22 00:33:53;;;;;;;8.38;4.65;;;;;;;;;;5060435;28;20063;-70
2022/09/22 00:36:20;;;;;;;6.43;4.18;;;;;;;;;;5059491;28;20072;-70
2022/09/22 00:38:49;;;;;;;5.90;4.50;;;;;;;;;;5055023;28;20045;-70
2022/09/22 00:41:36;;;;;;;7.97;5.18;;;;;;;;;;5060973;28;20048;-70
2022/09/22 00:44:40;;;;;;;6.03;4.40;;;;;;;;;;5024025;28;20064;-70
2022/09/22 00:47:27;;;;;;;6.53;4.90;;;;;;;;;;5055984;28;20052;-70
2022/09/22 00:49:55;;;;;;;7.00;5.10;;;;;;;;;;5041369;28;20079;-70
2022/09/22 00:52:28;;;;;;;6.57;4.88;;;;;;;;;;5055060;28;20051;-70
2022/09/22 00:54:57;;;;;;;6.00;4.78;;;;;;;;;;5061335;28;20078;-70
2022/09/22 00:57:27;;;;;;;7.75;5.25;;;;;;;;;;5061287;28;20098;-70
2022/09/22 00:59:53;;;;;;;8.30;5.53;;;;;;;;;;5060792;28;21028;-70
2022/09/22 01:02:19;;;;;;;9.13;4.97;;;;;;;;;;5047294;28;20044;-70
2022/09/22 01:04:48;;;;;;;8.02;5.05;;;;;;;;;;5051598;28;20052;-69
2022/09/22 01:07:14;;;;;;;9.35;4.90;;;;;;;;;;5047263;28;20105;-69
2022/09/22 01:09:39;;;;;;;7.47;5.00;;;;;;;;;;5044064;28;20402;-70
2022/09/22 01:12:05;;;;;;;6.88;4.80;;;;;;;;;;5050315;28;20456;-69
2022/09/22 01:15:00;;;;;;;6.82;4.55;;;;;;;;;;5051735;28;21023;-70
2022/09/22 01:17:56;;;;;;;6.13;4.78;;;;;;;;;;5048359;28;20060;-70
2022/09/22 01:20:50;;;;;;;6.03;4.82;;;;;;;;;;5040656;28;20105;-70
2022/09/22 01:23:43;;;;;;;6.07;4.43;;;;;;;;;;5056185;28;20048;-70
2022/09/22 01:26:24;;;;;;;8.15;5.10;;;;;;;;;;5035594;28;20194;-70
2022/09/22 01:29:17;;;;;;;8.80;6.00;;;;;;;;;;5054493;28;20109;-69
2022/09/22 01:31:53;;;;;;;11.25;6.78;;;;;;;;;;5054765;28;20037;-70
2022/09/22 01:34:36;;;;;;;12.60;7.20;;;;;;;;;;5055888;28;20743;-70
2022/09/22 01:37:24;;;;;;;11.75;7.22;;;;;;;;;;5052047;28;20382;-70
2022/09/22 01:39:58;;;;;;;9.50;6.22;;;;;;;;;;5059479;28;20469;-70
2022/09/22 01:42:34;;;;;;;10.43;6.53;;;;;;;;;;5055343;28;20513;-70
2022/09/22 01:45:16;;;;;;;8.20;6.05;;;;;;;;;;5055934;28;20143;-70
2022/09/22 01:47:49;;;;;;;8.93;6.55;;;;;;;;;;5051592;28;20048;-70
2022/09/22 01:50:30;;;;;;;10.45;5.75;;;;;;;;;;5054743;28;20135;-70
2022/09/22 01:52:59;;;;;;;7.82;5.35;;;;;;;;;;5055445;28;20048;-70
2022/09/22 01:55:30;;;;;;;13.02;5.90;;;;;;;;;;5032711;28;20041;-70
2022/09/22 01:58:10;;;;;;;9.23;5.72;;;;;;;;;;5045331;28;20048;-70
2022/09/22 02:00:40;;;;;;;6.23;5.30;;;;;;;;;;5031237;28;20052;-70
2022/09/22 02:03:18;;;;;;;7.57;5.43;;;;;;;;;;5053236;28;20085;-70
2022/09/22 02:05:52;;;;;;;8.50;5.60;;;;;;;;;;5051318;28;20048;-69
2022/09/22 02:09:07;;;;;;;7.70;5.55;;;;;;;;;;5055317;28;20044;-70
2022/09/22 02:11:33;;;;;;;6.85;5.03;;;;;;;;;;5046826;28;20094;-70
2022/09/22 02:13:59;;;;;;;7.47;5.50;;;;;;;;;;5051621;28;20469;-70
2022/09/22 02:16:26;;;;;;;10.20;5.35;;;;;;;;;;5045604;28;20136;-70
2022/09/22 02:19:25;;;;;;;7.03;5.55;;;;;;;;;;5060221;28;20048;-69
2022/09/22 02:21:51;;;;;;;8.00;5.75;;;;;;;;;;5042580;28;20098;-70
2022/09/22 02:24:33;;;;;;;9.48;5.75;;;;;;;;;;5054246;28;20048;-70
2022/09/22 02:27:06;;;;;;;12.27;5.88;;;;;;;;;;5053260;28;20190;-70
2022/09/22 02:29:36;;;;;;;6.13;4.63;;;;;;;;;;5055289;28;20049;-70
2022/09/22 02:32:06;;;;;;;9.43;5.88;;;;;;;;;;5053885;28;20130;-70
2022/09/22 02:34:32;;;;;;;6.85;5.43;;;;;;;;;;5058622;28;20062;-70
2022/09/22 02:37:12;;;;;;;8.50;5.70;;;;;;;;;;5057448;28;20044;-70
2022/09/22 02:39:59;;;;;;;6.50;5.13;;;;;;;;;;5051235;28;20048;-70
2022/09/22 02:42:37;;;;;;;7.63;5.57;;;;;;;;;;5056828;28;20082;-70
2022/09/22 02:45:05;;;;;;;8.02;4.80;;;;;;;;;;5039274;28;20406;-70
2022/09/22 02:47:43;;;;;;;5.60;4.97;;;;;;;;;;5053446;28;20143;-70
2022/09/22 02:50:11;;;;;;;9.43;6.07;;;;;;;;;;5030013;28;20187;-70
2022/09/22 02:52:38;;;;;;;8.50;5.35;;;;;;;;;;5055280;28;20055;-70
2022/09/22 02:55:05;;;;;;;7.93;5.15;;;;;;;;;;5048214;28;20058;-69
2022/09/22 02:57:30;;;;;;;7.88;5.13;;;;;;;;;;5056449;28;20424;-70
2022/09/22 02:59:56;;;;;;;6.68;5.03;;;;;;;;;;5055677;28;20056;-70
2022/09/22 03:02:21;;;;;;;5.82;4.80;;;;;;;;;;5051660;28;20056;-70
2022/09/22 03:04:47;;;;;;;10.85;5.40;;;;;;;;;;5054381;28;20076;-69
2022/09/22 03:07:12;;;;;;;9.60;5.28;;;;;;;;;;5056306;28;20082;-70
2022/09/22 03:09:38;;;;;;;9.70;6.07;;;;;;;;;;5058007;28;20070;-70
2022/09/22 03:12:03;;;;;;;8.23;6.50;;;;;;;;;;5054968;28;20072;-70
2022/09/22 03:14:29;;;;;;;14.85;6.72;;;;;;;;;;5054531;28;20097;-70
2022/09/22 03:16:54;;;;;;;11.80;6.53;;;;;;;;;;5052020;28;20048;-70
2022/09/22 03:19:19;;;;;;;9.15;5.72;;;;;;;;;;5058989;28;20140;-69
2022/09/22 03:21:45;;;;;;;8.45;5.75;;;;;;;;;;5048492;28;20048;-69
2022/09/22 03:24:10;;;;;;;7.15;5.50;;;;;;;;;;5059834;28;20056;-70
2022/09/22 03:26:35;;;;;;;9.93;5.53;;;;;;;;;;5040233;28;20122;-70
2022/09/22 03:29:01;;;;;;;7.05;5.57;;;;;;;;;;5052328;28;20045;-70
2022/09/22 03:31:26;;;;;;;9.02;5.65;;;;;;;;;;5044315;28;20040;-71
2022/09/22 03:33:52;;;;;;;6.63;4.97;;;;;;;;;;5055405;28;20053;-70
2022/09/22 03:36:17;;;;;;;8.27;5.85;;;;;;;;;;5053937;28;20467;-70
2022/09/22 03:38:43;;;;;;;7.32;5.25;;;;;;;;;;5032633;28;20423;-70
2022/09/22 03:41:09;;;;;;;9.95;5.53;;;;;;;;;;5058614;28;20284;-70
2022/09/22 03:43:34;;;;;;;7.68;5.20;;;;;;;;;;5045546;28;20493;-71
2022/09/22 03:46:01;;;;;;;7.75;5.85;;;;;;;;;;5058570;28;20159;-70
2022/09/22 03:48:28;;;;;;;7.10;5.93;;;;;;;;;;5053891;28;20712;-70
2022/09/22 03:50:55;;;;;;;10.10;7.00;;;;;;;;;;5062639;28;20066;-70
2022/09/22 03:53:21;;;;;;;10.70;6.82;;;;;;;;;;5059238;28;20450;-70
2022/09/22 03:55:47;;;;;;;10.63;6.57;;;;;;;;;;5052572;28;20059;-70
2022/09/22 03:58:13;;;;;;;8.60;6.57;;;;;;;;;;5052385;28;20048;-71
2022/09/22 04:00:39;;;;;;;8.63;6.85;;;;;;;;;;5043394;28;20047;-70
2022/09/22 04:03:04;;;;;;;10.23;6.88;;;;;;;;;;5054485;28;20052;-70
2022/09/22 04:05:30;;;;;;;14.27;7.00;;;;;;;;;;5060771;28;20048;-70
2022/09/22 04:07:55;;;;;;;11.40;6.65;;;;;;;;;;5053623;28;20759;-70
2022/09/22 04:10:22;;;;;;;7.47;6.22;;;;;;;;;;5042068;28;20041;-70
2022/09/22 04:16:34;;;;;;;7.28;5.78;;;;;;;;;;5053604;28;21065;-70
2022/09/22 04:19:03;;;;;;;7.82;6.20;;;;;;;;;;5052619;28;20049;-70
2022/09/22 04:21:30;;;;;;;8.63;5.93;;;;;;;;;;5051548;28;20430;-70
2022/09/22 04:23:55;;;;;;;9.15;6.40;;;;;;;;;;5055865;28;20489;-70
2022/09/22 04:26:21;;;;;;;9.85;6.28;;;;;;;;;;5052632;28;20063;-71
2022/09/22 04:28:46;;;;;;;12.07;6.70;;;;;;;;;;5051783;28;20440;-69
2022/09/22 04:31:12;;;;;;;8.05;5.85;;;;;;;;;;5059272;28;20497;-69
2022/09/22 04:33:37;;;;;;;7.93;6.45;;;;;;;;;;5049491;28;20041;-69
2022/09/22 04:36:03;;;;;;;8.77;6.97;;;;;;;;;;5045619;28;20060;-69
2022/09/22 04:38:28;;;;;;;10.57;6.72;;;;;;;;;;5049336;28;20507;-69
2022/09/22 04:40:54;;;;;;;10.30;7.70;;;;;;;;;;5048498;28;20138;-69
2022/09/22 04:43:19;;;;;;;12.85;8.30;;;;;;;;;;5049021;28;20264;-69
2022/09/22 04:45:45;;;;;;;12.05;8.35;;;;;;;;;;5053427;28;20128;-70
2022/09/22 04:48:11;;;;;;;12.55;8.60;;;;;;;;;;5042592;28;20397;-69
2022/09/22 04:50:37;;;;;;;13.38;9.05;;;;;;;;;;5040049;28;20048;-70
2022/09/22 04:53:04;;;;;;;12.70;9.35;;;;;;;;;;5058705;28;20840;-69
2022/09/22 04:55:29;;;;;;;12.82;9.02;;;;;;;;;;5059737;28;20520;-69
2022/09/22 04:57:56;;;;;;;13.98;8.57;;;;;;;;;;5053417;28;20808;-69
2022/09/22 05:00:23;;;;;;;13.98;8.93;;;;;;;;;;5056176;28;20059;-69
2022/09/22 05:02:49;;;;;;;11.70;8.18;;;;;;;;;;5048670;28;20460;-69
2022/09/22 05:05:15;;;;;;;12.82;7.85;;;;;;;;;;5058644;28;20109;-71
2022/09/22 05:07:42;;;;;;;8.77;6.97;;;;;;;;;;5048623;28;20051;-70
2022/09/22 05:10:10;;;;;;;10.93;6.47;;;;;;;;;;5045626;28;20083;-70
2022/09/22 05:12:41;;;;;;;7.22;6.13;;;;;;;;;;5058744;28;20054;-70
2022/09/22 05:15:08;;;;;;;11.33;7.37;;;;;;;;;;5056942;28;20044;-70
2022/09/22 05:17:37;;;;;;;8.35;6.32;;;;;;;;;;5045971;28;20040;-70
2022/09/22 05:20:04;;;;;;;8.85;6.30;;;;;;;;;;5051183;28;20135;-70
2022/09/22 05:22:30;;;;;;;9.30;6.00;;;;;;;;;;5030549;28;20553;-70
2022/09/22 05:24:55;;;;;;;7.38;5.95;;;;;;;;;;5052076;28;20090;-71
2022/09/22 05:27:21;;;;;;;8.75;5.95;;;;;;;;;;5053825;28;20052;-71
2022/09/22 05:29:46;;;;;;;13.00;6.00;;;;;;;;;;5054760;28;20119;-70
2022/09/22 05:32:12;;;;;;;9.73;7.00;;;;;;;;;;5047851;28;20526;-70
2022/09/22 05:34:37;;;;;;;9.00;6.97;;;;;;;;;;5049165;28;20049;-69
2022/09/22 05:37:03;;;;;;;13.13;6.80;;;;;;;;;;5050957;28;20048;-70
2022/09/22 05:39:28;;;;;;;9.40;6.82;;;;;;;;;;5053146;28;20056;-69
2022/09/22 05:41:54;;;;;;;9.65;6.68;;;;;;;;;;5051567;28;20084;-70
2022/09/22 05:44:20;;;;;;;12.50;7.40;;;;;;;;;;5060878;28;20056;-70
2022/09/22 05:46:47;;;;;;;10.57;7.20;;;;;;;;;;5060272;28;20048;-69
2022/09/22 05:49:12;;;;;;;10.18;7.15;;;;;;;;;;5058513;28;20482;-70
2022/09/22 05:51:38;;;;;;;10.23;6.75;;;;;;;;;;5052898;28;20036;-70
2022/09/22 05:54:03;;;;;;;14.55;7.32;;;;;;;;;;5056472;28;20102;-69
2022/09/22 05:56:30;;;;;;;18.08;7.43;;;;;;;;;;5048890;28;20492;-70
2022/09/22 05:58:55;;;;;;;15.32;5.68;;;;;;;;;;5060825;28;20127;-70
2022/09/22 06:01:21;;;;;;;8.18;5.20;;;;;;;;;;5053493;28;20143;-70
2022/09/22 06:03:46;;;;;;;12.02;5.30;;;;;;;;;;5059755;28;20146;-71
2022/09/22 06:06:13;;;;;;;5.78;4.15;;;;;;;;;;5059780;28;20135;-70
2022/09/22 06:08:39;;;;;;;5.85;4.30;;;;;;;;;;5056936;28;20036;-70
2022/09/22 06:11:05;;;;;;;5.40;4.50;;;;;;;;;;5059685;28;21063;-68
2022/09/22 06:13:31;;;;;;;6.60;4.53;;;;;;;;;;5053322;28;20048;-69
2022/09/22 06:15:56;;;;;;;9.25;6.00;;;;;;;;;;5059015;28;20040;-69
2022/09/22 06:18:24;;;;;;;11.68;4.30;;;;;;;;;;5060455;28;20626;-69
2022/09/22 06:20:50;;;;;;;5.05;3.97;;;;;;;;;;5059694;28;20051;-69
2022/09/22 06:23:16;;;;;;;5.13;4.03;;;;;;;;;;5052656;28;20041;-69
2022/09/22 06:25:42;;;;;;;8.25;4.03;;;;;;;;;;5059008;28;20095;-69
2022/09/22 06:28:12;;;;;;;5.43;4.20;;;;;;;;;;5059934;28;20638;-68
2022/09/22 06:30:39;;;;;;;3.88;3.25;;;;;;;;;;5055818;28;20417;-69
2022/09/22 06:33:05;;;;;;;5.55;3.50;;;;;;;;;;5057063;28;20151;-69
2022/09/22 06:35:36;;;;;;;7.68;3.85;;;;;;;;;;5052574;28;20044;-69
2022/09/22 06:38:03;;;;;;;5.13;3.60;;;;;;;;;;5059735;28;20485;-70
2022/09/22 06:40:31;;;;;;;6.38;3.63;;;;;;;;;;5051392;28;20521;-69
2022/09/22 06:43:06;;;;;;;5.47;3.63;;;;;;;;;;5060250;28;20048;-69
2022/09/22 06:45:32;;;;;;;6.15;3.85;;;;;;;;;;5034203;28;20048;-70
2022/09/22 06:47:59;;;;;;;5.00;3.80;;;;;;;;;;5059374;28;20040;-67
2022/09/22 06:50:29;;;;;;;6.20;3.30;;;;;;;;;;5058491;28;20033;-69
2022/09/22 06:53:06;;;;;;;4.30;3.78;;;;;;;;;;5060269;28;20509;-69
2022/09/22 06:55:32;;;;;;;6.88;4.00;;;;;;;;;;5048747;28;20076;-71
2022/09/22 06:57:59;;;;;;;6.35;3.47;;;;;;;;;;5046419;28;20412;-71
2022/09/22 07:00:30;;;;;;;7.25;3.63;;;;;;;;;;5057109;28;20411;-70
2022/09/22 07:03:15;;;;;;;5.82;3.92;;;;;;;;;;5060078;28;20056;-70
2022/09/22 07:05:42;;;;;;;6.55;4.28;;;;;;;;;;5056500;28;20037;-70
2022/09/22 07:08:07;;;;;;;6.90;3.88;;;;;;;;;;5051453;28;20139;-70
2022/09/22 07:10:36;;;;;;;4.93;3.97;;;;;;;;;;5059854;28;20468;-70
2022/09/22 07:13:04;;;;;;;3.22;2.88;;;;;;;;;;5059791;28;20114;-70
2022/09/22 07:15:30;;;;;;;3.58;2.90;;;;;;;;;;5051501;28;20044;-70
2022/09/22 07:17:56;;;;;;;5.32;3.25;;;;;;;;;;5052239;28;20080;-70
2022/09/22 07:20:22;;;;;;;4.07;3.33;;;;;;;;;;5059460;28;20127;-69
2022/09/22 07:22:47;;;;;;;7.13;2.88;;;;;;;;;;5058312;28;20044;-70
2022/09/22 07:25:15;;;;;;;3.20;2.60;;;;;;;;;;5063153;28;20044;-70
2022/09/22 07:27:40;;;;;;;3.90;3.17;;;;;;;;;;5062850;28;20160;-70
2022/09/22 07:30:09;;;;;;;3.72;3.10;;;;;;;;;;5055341;28;20580;-70
2022/09/22 07:32:34;;;;;;;4.43;3.00;;;;;;;;;;5063364;28;21057;-70
2022/09/22 07:35:00;;;;;;;4.78;2.67;;;;;;;;;;5061172;28;20049;-70
2022/09/22 07:37:28;;;;;;;3.60;2.83;;;;;;;;;;5063273;28;20586;-70
2022/09/22 07:39:54;;;;;;;2.55;2.35;;;;;;;;;;5056269;28;20435;-70
2022/09/22 07:42:20;;;;;;;8.02;2.65;;;;;;;;;;5059734;28;20517;-70
2022/09/22 07:50:15;;;;;;;5.50;2.60;;;;;;;;;;5038868;28;20045;-70
2022/09/22 07:52:40;;;;;;;3.13;2.45;;;;;;;;;;5049881;28;20044;-70
2022/09/22 07:55:06;;;;;;;4.43;2.47;;;;;;;;;;5059816;28;20044;-70
2022/09/22 07:57:32;;;;;;;6.55;2.85;;;;;;;;;;5036380;28;20049;-70
2022/09/22 07:59:58;;;;;;;3.20;2.55;;;;;;;;;;5062146;28;20068;-70
2022/09/22 08:02:26;;;;;;;3.65;2.53;;;;;;;;;;5051718;28;20041;-69
2022/09/22 08:04:51;;;;;;;3.88;2.70;;;;;;;;;;5057545;28;20493;-70
2022/09/22 08:07:17;;;;;;;2.55;2.35;;;;;;;;;;5050842;28;20051;-70
2022/09/22 08:09:42;;;;;;;5.47;2.42;;;;;;;;;;5057965;28;20043;-70
2022/09/22 08:12:09;;;;;;;5.32;2.47;;;;;;;;;;5061968;28;20048;-70
2022/09/22 08:14:34;;;;;;;2.78;2.50;;;;;;;;;;5052469;28;20389;-69
2022/09/22 08:17:00;;;;;;;2.92;2.60;;;;;;;;;;5054407;28;20048;-70
2022/09/22 08:19:25;;;;;;;2.10;2.00;;;;;;;;;;5059245;28;20048;-70
2022/09/22 08:21:52;;;;;;;1.80;1.70;;;;;;;;;;5054180;28;21040;-70
2022/09/22 08:24:21;;;;;;;8.02;1.90;;;;;;;;;;5050796;28;20049;-70
2022/09/22 08:26:49;;;;;;;3.55;1.92;;;;;;;;;;5061299;28;20466;-69
2022/09/22 08:29:14;;;;;;;2.17;1.63;;;;;;;;;;5054380;28;20053;-69
2022/09/22 08:31:41;;;;;;;1.48;1.38;;;;;;;;;;5048783;28;20048;-69
2022/09/22 08:34:08;;;;;;;1.98;1.42;;;;;;;;;;5064208;28;20489;-69
2022/09/22 08:36:34;;;;;;;2.15;1.27;;;;;;;;;;5050609;28;20485;-69
2022/09/22 08:39:00;;;;;;;2.92;1.40;;;;;;;;;;5046604;28;20048;-69
2022/09/22 08:41:37;;;;;;;1.58;1.48;;;;;;;;;;5061322;28;20117;-69
2022/09/22 08:44:16;;;;;;;2.70;1.38;;;;;;;;;;5056939;28;20044;-69
2022/09/22 08:46:43;;;;;;;3.83;1.38;;;;;;;;;;5044679;28;20497;-69
2022/09/22 08:51:59;;;;;;;3.03;1.60;;;;;;;;;;5061145;28;20044;-68
2022/09/22 08:54:30;;;;;;;1.63;1.52;;;;;;;;;;5053563;28;20048;-68
2022/09/22 08:57:18;;;;;;;1.50;1.40;;;;;;;;;;5054688;28;20041;-69
2022/09/22 09:00:13;;;;;;;2.38;1.50;;;;;;;;;;5047223;28;20049;-69
2022/09/22 09:02:58;;;;;;;2.15;1.40;;;;;;;;;;5060682;28;20045;-68
2022/09/22 09:05:44;;;;;;;2.45;1.33;;;;;;;;;;5061580;28;20138;-69
2022/09/22 09:08:27;;;;;;;2.63;1.45;;;;;;;;;;5034149;28;20080;-69
2022/09/22 09:11:12;;;;;;;1.20;1.17;;;;;;;;;;5046867;28;20053;-69
2022/09/22 09:14:08;;;;;;;1.15;1.13;;;;;;;;;;5054088;28;20040;-69
2022/09/22 09:17:13;;;;;;;1.40;1.30;;;;;;;;;;5053766;28;20052;-70
2022/09/22 09:19:51;;;;;;;3.05;1.35;;;;;;;;;;5003411;28;20080;-70
2022/09/22 09:22:23;;;;;;;1.20;1.10;;;;;;;;;;5048238;28;20141;-69
2022/09/22 09:24:53;;;;;;;1.88;1.42;;;;;;;;;;5061635;28;20045;-70
2022/09/22 09:27:23;;;;;;;1.50;1.40;;;;;;;;;;5061076;28;20059;-70
2022/09/22 09:30:05;;;;;;;1.80;1.40;;;;;;;;;;5060126;28;20555;-70
2022/09/22 09:32:42;;;;;;;1.17;1.10;;;;;;;;;;5053542;28;20048;-69
2022/09/22 09:35:14;;;;;;;1.30;1.20;;;;;;;;;;5059624;28;20057;-70
2022/09/22 09:37:41;;;;;;;;;;;;;;;;;;5061044;28;20439;-70
2022/09/22 09:40:14;;;;;;;2.03;1.48;;;;;;;;;;5026384;28;19928;-70
2022/09/22 09:42:42;;;;;;;3.22;1.63;;;;;;;;;;5054045;28;20056;-69
2022/09/22 09:45:13;;;;;;;1.50;1.40;;;;;;;;;;5052354;28;20067;-70
2022/09/22 09:48:24;;;;;;;1.30;1.20;;;;;;;;;;5060384;28;20044;-69
2022/09/22 09:50:50;;;;;;;1.25;1.08;;;;;;;;;;4998796;28;20395;-70
2022/09/22 09:53:25;;;;;;;1.58;1.30;;;;;;;;;;5033298;28;20595;-70
2022/09/22 09:55:51;;;;;;;1.33;1.23;;;;;;;;;;5051892;28;20055;-70
2022/09/22 10:00:30;;;;;;;1.67;1.42;;;;;;;;;;5060388;28;20049;-70
2022/09/22 10:01:04;;;;;;;1.08;1.08;;;;;;;;;;5027324;28;20056;-70
2022/09/22 10:03:32;;;;;;;1.45;1.20;;;;;;;;;;5041573;28;20049;-68
2022/09/22 10:06:05;;;;;;;1.33;0.98;;;;;;;;;;5044318;28;20124;-69
2022/09/22 10:08:35;;;;;;;2.05;1.30;;;;;;;;;;5060713;28;20052;-69
2022/09/22 10:11:02;;;;;;;1.20;1.10;;;;;;;;;;5059582;28;20139;-69
2022/09/22 10:13:34;;;;;;;1.77;1.33;;;;;;;;;;5057385;28;20562;-69
2022/09/22 10:16:06;;;;;;;;;;;;;;;;;;5052351;28;20041;-69
2022/09/22 10:18:39;;;;;;;2.55;1.33;;;;;;;;;;5052817;28;19928;-69
2022/09/22 10:21:16;;;;;;;1.67;1.33;;;;;;;;;;5059632;28;20057;-69
2022/09/22 10:23:43;;;;;;;1.27;1.10;;;;;;;;;;5060175;28;20057;-69
2022/09/22 10:26:30;;;;;;;1.33;1.23;;;;;;;;;;5050825;28;20033;-71
2022/09/22 10:29:11;;;;;;;1.42;1.10;;;;;;;;;;5052159;28;20451;-71
2022/09/22 10:31:38;;;;;;;1.60;1.40;;;;;;;;;;5045144;28;20047;-71
2022/09/22 10:34:05;;;;;;;1.13;0.98;;;;;;;;;;5060573;28;20044;-72
2022/09/22 10:36:32;;;;;;;1.20;1.10;;;;;;;;;;5044366;28;20063;-70
2022/09/22 10:38:58;;;;;;;1.27;1.20;;;;;;;;;;5060269;28;20044;-70
2022/09/22 10:41:29;;;;;;;1.75;1.20;;;;;;;;;;5059738;28;20056;-71
2022/09/22 10:44:07;;;;;;;5.07;1.40;;;;;;;;;;5059756;28;20044;-71
2022/09/22 10:46:57;;;;;;;1.08;1.08;;;;;;;;;;5048417;28;20390;-71
2022/09/22 10:50:02;;;;;;;1.40;1.00;;;;;;;;;;5059384;28;20056;-69
2022/09/22 10:52:48;;;;;;;3.28;1.00;;;;;;;;;;5043365;28;20098;-69
2022/09/22 10:55:31;;;;;;;1.05;1.00;;;;;;;;;;5058660;28;20049;-71
2022/09/22 10:58:02;;;;;;;1.42;1.10;;;;;;;;;;5052296;28;20049;-72
2022/09/22 11:00:33;;;;;;;1.17;1.00;;;;;;;;;;5049167;28;20049;-70
2022/09/22 11:03:51;;;;;;;0.75;0.75;;;;;;;;;;5060247;28;20048;-70
2022/09/22 11:12:15;;;;;;;1.15;1.00;;;;;;;;;;5058991;28;20049;-71
2022/09/22 11:14:41;;;;;;;1.48;1.08;;;;;;;;;;5053318;28;20079;-69
2022/09/22 11:17:38;;;;;;;0.98;0.98;;;;;;;;;;5059308;28;20076;-71
2022/09/22 11:20:35;;;;;;;2.22;1.00;;;;;;;;;;5051426;28;20060;-71
2022/09/22 11:23:37;;;;;;;1.25;1.00;;;;;;;;;;5051514;28;20053;-70
2022/09/22 11:26:21;;;;;;;1.45;1.20;;;;;;;;;;5055421;28;20390;-69
2022/09/22 11:29:05;;;;;;;1.85;0.90;;;;;;;;;;5053817;28;20044;-69
2022/09/22 11:31:51;;;;;;;2.00;1.20;;;;;;;;;;5047559;28;20048;-69
2022/09/22 11:34:38;;;;;;;1.10;1.00;;;;;;;;;;5030688;28;20110;-71
2022/09/22 11:37:25;;;;;;;1.27;1.15;;;;;;;;;;5040370;28;20049;-70
2022/09/22 11:40:32;;;;;;;0.90;0.80;;;;;;;;;;5042989;28;20045;-70
2022/09/22 11:43:19;;;;;;;1.88;1.10;;;;;;;;;;5047348;28;20421;-70
2022/09/22 11:45:55;;;;;;;1.20;0.90;;;;;;;;;;5044682;28;20129;-71
2022/09/22 11:48:32;;;;;;;0.93;0.90;;;;;;;;;;5056232;28;20101;-70
2022/09/22 11:51:36;;;;;;;0.98;0.80;;;;;;;;;;5056750;28;20131;-70
2022/09/22 11:54:24;;;;;;;5.65;1.00;;;;;;;;;;5042871;28;20053;-70
2022/09/22 11:56:54;;;;;;;1.00;1.00;;;;;;;;;;5045521;28;20090;-70
2022/09/22 11:59:26;;;;;;;1.58;0.80;;;;;;;;;;5058666;28;20052;-70
2022/09/22 12:01:55;;;;;;;1.00;1.00;;;;;;;;;;5058577;28;20048;-70
2022/09/22 12:04:30;;;;;;;1.08;0.98;;;;;;;;;;5053916;28;20986;-70
2022/09/22 12:06:58;;;;;;;1.13;0.90;;;;;;;;;;5045629;28;20486;-70
2022/09/22 12:09:33;;;;;;;1.20;1.10;;;;;;;;;;5061715;28;20045;-70
2022/09/22 12:12:01;;;;;;;1.42;0.90;;;;;;;;;;5057547;28;20505;-69
2022/09/22 12:14:28;;;;;;;1.27;1.13;;;;;;;;;;5055867;28;20040;-70
2022/09/22 12:17:17;;;;;;;2.13;1.10;;;;;;;;;;5047026;28;20044;-69
2022/09/22 12:19:53;;;;;;;2.55;0.90;;;;;;;;;;5046735;28;20060;-69
2022/09/22 12:22:31;;;;;;;0.80;0.77;;;;;;;;;;5054274;28;20485;-70
2022/09/22 12:24:57;;;;;;;1.48;1.00;;;;;;;;;;5057480;28;20091;-70
2022/09/22 12:27:27;;;;;;;3.83;0.90;;;;;;;;;;5043482;28;20156;-69
2022/09/22 12:30:06;;;;;;;5.45;0.90;;;;;;;;;;5044765;28;20859;-70
2022/09/22 12:32:40;;;;;;;1.70;0.80;;;;;;;;;;5048233;28;20051;-70
2022/09/22 12:35:06;;;;;;;0.77;0.63;;;;;;;;;;5046212;28;20053;-70
2022/09/22 12:37:36;;;;;;;1.85;0.80;;;;;;;;;;5051692;28;20048;-70
2022/09/22 12:40:14;;;;;;;1.02;0.80;;;;;;;;;;5056010;28;20060;-70
2022/09/22 12:42:42;;;;;;;1.48;0.95;;;;;;;;;;5049945;28;20140;-70
2022/09/22 12:45:19;;;;;;;1.40;0.90;;;;;;;;;;5048301;28;20049;-70
2022/09/22 12:47:50;;;;;;;1.02;1.00;;;;;;;;;;5046408;28;20055;-70
2022/09/22 12:50:21;;;;;;;7.95;1.20;;;;;;;;;;5051549;28;20094;-70
2022/09/22 12:52:49;;;;;;;0.68;0.68;;;;;;;;;;5048575;28;20053;-70
2022/09/22 12:55:23;;;;;;;1.77;0.80;;;;;;;;;;5049677;28;20045;-70
2022/09/22 12:57:50;;;;;;;0.98;0.80;;;;;;;;;;5050113;28;20121;-70
2022/09/22 13:00:22;;;;;;;1.42;1.20;;;;;;;;;;5050291;28;20133;-70
2022/09/22 13:02:49;;;;;;;1.90;1.17;;;;;;;;;;5059025;28;20159;-70
2022/09/22 13:05:23;;;;;;;1.58;1.00;;;;;;;;;;5051343;28;20051;-70
2022/09/22 13:07:54;;;;;;;2.15;1.02;;;;;;;;;;5055835;28;20139;-69
2022/09/22 13:10:19;;;;;;;1.30;1.20;;;;;;;;;;5048005;28;20049;-69
2022/09/22 13:13:09;;;;;;;0.98;0.98;;;;;;;;;;5053911;28;20110;-69
2022/09/22 13:15:50;;;;;;;1.08;1.08;;;;;;;;;;5052373;28;20054;-69
2022/09/22 13:18:38;;;;;;;2.03;1.70;;;;;;;;;;5033019;28;20044;-69
2022/09/22 13:21:13;;;;;;;1.42;1.33;;;;;;;;;;5043681;28;20047;-70
2022/09/22 13:23:51;;;;;;;1.13;1.02;;;;;;;;;;5053791;28;20405;-70
2022/09/22 13:26:29;;;;;;;1.17;1.10;;;;;;;;;;5060837;28;20386;-70
2022/09/22 13:29:20;;;;;;;2.22;1.75;;;;;;;;;;5060761;28;20056;-69
2022/09/22 13:31:53;;;;;;;5.50;2.00;;;;;;;;;;5051511;28;20048;-69
2022/09/22 13:34:30;;;;;;;4.00;1.60;;;;;;;;;;5061297;28;20044;-70
2022/09/22 13:37:08;;;;;;;3.40;1.70;;;;;;;;;;5060370;28;20049;-71
2022/09/22 13:39:37;;;;;;;3.72;1.60;;;;;;;;;;5052902;28;20143;-70
2022/09/22 13:42:13;;;;;;;2.08;1.48;;;;;;;;;;5052543;28;20973;-69
2022/09/22 13:44:41;;;;;;;2.65;1.48;;;;;;;;;;5048191;28;20048;-69
2022/09/22 13:47:13;;;;;;;11.00;2.15;;;;;;;;;;5060048;28;20150;-69
2022/09/22 13:49:46;;;;;;;1.88;1.67;;;;;;;;;;5060384;28;20036;-71
2022/09/22 13:52:15;;;;;;;1.80;1.70;;;;;;;;;;5042092;28;20459;-72
2022/09/22 13:54:41;;;;;;;1.92;1.67;;;;;;;;;;5060869;28;20123;-70
2022/09/22 13:57:18;;;;;;;1.70;1.42;;;;;;;;;;5059908;28;20528;-70
2022/09/22 13:59:43;;;;;;;2.78;1.38;;;;;;;;;;5042061;28;20058;-70
2022/09/22 14:02:12;;;;;;;1.45;1.35;;;;;;;;;;5059607;28;20044;-69
2022/09/22 14:04:48;;;;;;;1.92;1.30;;;;;;;;;;5047813;28;20078;-69
2022/09/22 14:07:14;;;;;;;2.13;1.30;;;;;;;;;;5059815;28;20047;-69
2022/09/22 14:09:40;;;;;;;2.42;1.23;;;;;;;;;;5060138;28;20040;-69
2022/09/22 14:12:08;;;;;;;2.50;1.38;;;;;;;;;;5059369;28;20509;-70
2022/09/22 14:14:34;;;;;;;1.38;1.27;;;;;;;;;;5048616;28;21006;-70
2022/09/22 14:17:06;;;;;;;1.80;1.50;;;;;;;;;;5060494;28;20044;-69
2022/09/22 14:19:41;;;;;;;1.40;1.27;;;;;;;;;;5052297;28;20071;-68
2022/09/22 14:22:22;;;;;;;1.30;1.20;;;;;;;;;;5060613;28;20075;-68
2022/09/22 14:24:53;;;;;;;1.13;1.10;;;;;;;;;;5060359;28;20080;-70
2022/09/22 14:27:34;;;;;;;2.05;1.13;;;;;;;;;;5053055;28;20049;-69
2022/09/22 14:30:01;;;;;;;1.10;1.00;;;;;;;;;;5050500;28;20081;-67
2022/09/22 14:32:34;;;;;;;1.30;1.20;;;;;;;;;;5026035;28;20051;-69
2022/09/22 14:35:04;;;;;;;1.63;1.40;;;;;;;;;;5030906;28;20048;-67
2022/09/22 14:37:40;;;;;;;1.60;1.38;;;;;;;;;;5058698;28;20044;-69
2022/09/22 14:40:18;;;;;;;2.45;1.08;;;;;;;;;;5059846;28;20090;-69
2022/09/22 14:42:58;;;;;;;4.20;1.13;;;;;;;;;;5059769;28;20527;-69
2022/09/22 14:45:26;;;;;;;1.15;1.05;;;;;;;;;;5055855;28;20110;-71
2022/09/22 14:48:17;;;;;;;1.30;1.20;;;;;;;;;;5047825;28;21038;-70
2022/09/22 14:50:57;;;;;;;1.20;1.10;;;;;;;;;;5050822;28;20151;-70
2022/09/22 14:53:36;;;;;;;3.28;1.40;;;;;;;;;;5051480;28;20053;-71
2022/09/22 14:56:10;;;;;;;1.20;1.10;;;;;;;;;;5047878;28;20048;-72
2022/09/22 14:58:40;;;;;;;1.33;1.00;;;;;;;;;;5050877;28;20055;-71
2022/09/22 15:04:22;;;;;;;1.65;1.10;;;;;;;;;;5057717;28;20055;-69
2022/09/22 15:06:57;;;;;;;1.13;1.02;;;;;;;;;;5054289;28;20429;-71
2022/09/22 15:09:37;;;;;;;2.33;1.20;;;;;;;;;;5051717;28;20047;-71
2022/09/22 15:12:03;;;;;;;2.88;1.33;;;;;;;;;;5048614;28;20053;-71
2022/09/22 15:14:36;;;;;;;5.13;1.15;;;;;;;;;;5052933;28;20495;-70
2022/09/22 15:19:58;;;;;;;1.88;1.40;;;;;;;;;;5049158;28;20041;-70
2022/09/22 15:22:26;;;;;;;1.48;1.38;;;;;;;;;;5048626;28;20049;-70
2022/09/22 15:24:52;;;;;;;1.67;1.40;;;;;;;;;;5053145;28;20056;-70
2022/09/22 15:27:18;;;;;;;2.92;1.38;;;;;;;;;;5045805;28;20099;-70
2022/09/22 15:29:45;;;;;;;4.13;1.52;;;;;;;;;;5036697;28;20049;-70
2022/09/22 15:32:11;;;;;;;1.40;1.30;;;;;;;;;;5046458;28;20076;-71
2022/09/22 15:34:43;;;;;;;2.00;1.15;;;;;;;;;;5049240;28;20056;-70
2022/09/22 15:37:13;;;;;;;;;;;;;;;;;;5046476;28;20041;-71